sensor_id;sensor_type;location;lat;lon;timestamp;temperature;humidity
24618;DHT22;12762;51.730;5.356;2022-09-17T00:01:09;12.60;76.50
24618;DHT22;12762;51.730;5.356;2022-09-17T00:03:40;12.60;76.50
24618;DHT22;12762;51.730;5.356;2022-09-17T00:06:11;12.60;76.50
24618;DHT22;12762;51.730;5.356;2022-09-17T00:08:39;12.60;76.40
24618;DHT22;12762;51.730;5.356;2022-09-17T00:11:15;12.60;76.50
24618;DHT22;12762;51.730;5.356;2022-09-17T00:13:43;12.60;76.50
24618;DHT22;12762;51.730;5.356;2022-09-17T00:16:11;12.60;76.50
24618;DHT22;12762;51.730;5.356;2022-09-17T00:18:38;12.60;76.50
24618;DHT22;12762;51.730;5.356;2022-09-17T00:21:15;12.60;76.50
24618;DHT22;12762;51.730;5.356;2022-09-17T00:23:43;12.60;76.50
24618;DHT22;12762;51.730;5.356;2022-09-17T00:26:10;12.60;76.50
24618;DHT22;12762;51.730;5.356;2022-09-17T00:28:39;12.60;76.60
24618;DHT22;12762;51.730;5.356;2022-09-17T00:31:08;12.60;76.70
24618;DHT22;12762;51.730;5.356;2022-09-17T00:33:36;12.60;77.50
24618;DHT22;12762;51.730;5.356;2022-09-17T00:36:04;12.50;76.60
24618;DHT22;12762;51.730;5.356;2022-09-17T00:38:31;12.50;76.50
24618;DHT22;12762;51.730;5.356;2022-09-17T00:40:58;12.50;76.50
24618;DHT22;12762;51.730;5.356;2022-09-17T00:43:48;12.50;76.50
24618;DHT22;12762;51.730;5.356;2022-09-17T00:46:37;12.50;76.40
24618;DHT22;12762;51.730;5.356;2022-09-17T00:49:15;12.50;76.40
24618;DHT22;12762;51.730;5.356;2022-09-17T00:51:52;12.50;76.40
24618;DHT22;12762;51.730;5.356;2022-09-17T00:54:26;12.50;76.40
24618;DHT22;12762;51.730;5.356;2022-09-17T00:56:53;12.50;77.30
24618;DHT22;12762;51.730;5.356;2022-09-17T00:59:20;12.40;76.30
24618;DHT22;12762;51.730;5.356;2022-09-17T01:01:49;12.40;76.40
24618;DHT22;12762;51.730;5.356;2022-09-17T01:04:24;12.40;76.40
24618;DHT22;12762;51.730;5.356;2022-09-17T01:07:20;12.40;76.50
24618;DHT22;12762;51.730;5.356;2022-09-17T01:15:05;12.40;76.50
24618;DHT22;12762;51.730;5.356;2022-09-17T01:20:44;12.40;76.50
24618;DHT22;12762;51.730;5.356;2022-09-17T01:23:48;12.40;76.40
24618;DHT22;12762;51.730;5.356;2022-09-17T01:30:02;12.40;76.30
24618;DHT22;12762;51.730;5.356;2022-09-17T01:32:41;12.40;76.30
24618;DHT22;12762;51.730;5.356;2022-09-17T01:35:33;12.40;76.30
24618;DHT22;12762;51.730;5.356;2022-09-17T01:38:11;12.40;76.50
24618;DHT22;12762;51.730;5.356;2022-09-17T01:43:50;12.40;76.50
24618;DHT22;12762;51.730;5.356;2022-09-17T01:46:29;12.30;76.30
24618;DHT22;12762;51.730;5.356;2022-09-17T01:49:00;12.30;76.50
24618;DHT22;12762;51.730;5.356;2022-09-17T01:51:48;12.30;76.50
24618;DHT22;12762;51.730;5.356;2022-09-17T01:54:26;12.30;76.50
24618;DHT22;12762;51.730;5.356;2022-09-17T01:59:48;12.30;76.60
24618;DHT22;12762;51.730;5.356;2022-09-17T02:04:54;12.30;76.60
24618;DHT22;12762;51.730;5.356;2022-09-17T02:07:23;12.40;76.80
24618;DHT22;12762;51.730;5.356;2022-09-17T02:10:02;12.40;76.80
24618;DHT22;12762;51.730;5.356;2022-09-17T02:12:37;12.40;76.80
24618;DHT22;12762;51.730;5.356;2022-09-17T02:15:11;12.40;76.80
24618;DHT22;12762;51.730;5.356;2022-09-17T02:17:47;12.40;76.90
24618;DHT22;12762;51.730;5.356;2022-09-17T02:20:17;12.40;76.90
24618;DHT22;12762;51.730;5.356;2022-09-17T02:22:58;12.30;76.80
24618;DHT22;12762;51.730;5.356;2022-09-17T02:25:38;12.30;76.90
24618;DHT22;12762;51.730;5.356;2022-09-17T02:30:39;12.30;77.00
24618;DHT22;12762;51.730;5.356;2022-09-17T02:33:08;12.30;77.00
24618;DHT22;12762;51.730;5.356;2022-09-17T02:35:37;12.30;77.20
24618;DHT22;12762;51.730;5.356;2022-09-17T02:38:05;12.30;77.20
24618;DHT22;12762;51.730;5.356;2022-09-17T02:40:46;12.30;77.20
24618;DHT22;12762;51.730;5.356;2022-09-17T02:46:18;12.30;77.30
24618;DHT22;12762;51.730;5.356;2022-09-17T02:54:30;12.40;77.20
24618;DHT22;12762;51.730;5.356;2022-09-17T02:57:19;12.40;77.00
24618;DHT22;12762;51.730;5.356;2022-09-17T03:00:01;12.40;76.90
24618;DHT22;12762;51.730;5.356;2022-09-17T03:02:38;12.40;76.90
24618;DHT22;12762;51.730;5.356;2022-09-17T03:05:13;12.30;76.80
24618;DHT22;12762;51.730;5.356;2022-09-17T03:07:41;12.30;76.90
24618;DHT22;12762;51.730;5.356;2022-09-17T03:10:08;12.30;76.80
24618;DHT22;12762;51.730;5.356;2022-09-17T03:12:35;12.20;76.70
24618;DHT22;12762;51.730;5.356;2022-09-17T03:15:03;12.20;76.80
24618;DHT22;12762;51.730;5.356;2022-09-17T03:17:31;12.20;76.80
24618;DHT22;12762;51.730;5.356;2022-09-17T03:19:58;12.20;76.90
24618;DHT22;12762;51.730;5.356;2022-09-17T03:22:24;12.20;77.00
24618;DHT22;12762;51.730;5.356;2022-09-17T03:24:51;12.20;77.00
24618;DHT22;12762;51.730;5.356;2022-09-17T03:27:18;12.20;77.00
24618;DHT22;12762;51.730;5.356;2022-09-17T03:29:45;12.20;77.10
24618;DHT22;12762;51.730;5.356;2022-09-17T03:32:12;12.20;77.10
24618;DHT22;12762;51.730;5.356;2022-09-17T03:34:39;12.10;77.00
24618;DHT22;12762;51.730;5.356;2022-09-17T03:37:05;12.10;77.00
24618;DHT22;12762;51.730;5.356;2022-09-17T03:39:32;12.10;77.00
24618;DHT22;12762;51.730;5.356;2022-09-17T03:41:59;12.10;77.10
24618;DHT22;12762;51.730;5.356;2022-09-17T03:44:28;12.10;77.10
24618;DHT22;12762;51.730;5.356;2022-09-17T03:46:55;12.10;77.10
24618;DHT22;12762;51.730;5.356;2022-09-17T03:49:34;12.10;77.10
24618;DHT22;12762;51.730;5.356;2022-09-17T03:52:01;12.10;77.10
24618;DHT22;12762;51.730;5.356;2022-09-17T03:54:27;12.10;77.10
24618;DHT22;12762;51.730;5.356;2022-09-17T03:56:54;12.10;77.20
24618;DHT22;12762;51.730;5.356;2022-09-17T03:59:21;12.10;77.10
24618;DHT22;12762;51.730;5.356;2022-09-17T04:01:48;12.10;77.20
24618;DHT22;12762;51.730;5.356;2022-09-17T04:04:15;12.10;77.30
24618;DHT22;12762;51.730;5.356;2022-09-17T04:06:42;12.00;77.10
24618;DHT22;12762;51.730;5.356;2022-09-17T04:09:09;12.00;77.30
24618;DHT22;12762;51.730;5.356;2022-09-17T04:11:38;12.00;77.30
24618;DHT22;12762;51.730;5.356;2022-09-17T04:14:07;12.00;77.30
24618;DHT22;12762;51.730;5.356;2022-09-17T04:16:34;12.00;77.40
24618;DHT22;12762;51.730;5.356;2022-09-17T04:19:04;12.00;77.40
24618;DHT22;12762;51.730;5.356;2022-09-17T04:21:30;12.00;77.50
24618;DHT22;12762;51.730;5.356;2022-09-17T04:23:57;12.00;77.50
24618;DHT22;12762;51.730;5.356;2022-09-17T04:26:32;12.00;77.50
24618;DHT22;12762;51.730;5.356;2022-09-17T04:29:02;12.00;77.50
24618;DHT22;12762;51.730;5.356;2022-09-17T04:31:29;12.00;77.60
24618;DHT22;12762;51.730;5.356;2022-09-17T04:33:59;12.00;77.60
24618;DHT22;12762;51.730;5.356;2022-09-17T04:36:25;11.90;77.60
24618;DHT22;12762;51.730;5.356;2022-09-17T04:38:52;11.90;77.60
24618;DHT22;12762;51.730;5.356;2022-09-17T04:41:19;11.90;77.60
24618;DHT22;12762;51.730;5.356;2022-09-17T04:43:46;11.80;77.60
24618;DHT22;12762;51.730;5.356;2022-09-17T04:46:13;11.80;77.70
24618;DHT22;12762;51.730;5.356;2022-09-17T04:48:42;11.80;78.50
24618;DHT22;12762;51.730;5.356;2022-09-17T04:51:09;11.80;77.80
24618;DHT22;12762;51.730;5.356;2022-09-17T04:53:36;11.70;77.70
24618;DHT22;12762;51.730;5.356;2022-09-17T04:56:04;11.70;77.80
24618;DHT22;12762;51.730;5.356;2022-09-17T04:58:31;11.70;77.80
24618;DHT22;12762;51.730;5.356;2022-09-17T05:00:58;11.60;77.80
24618;DHT22;12762;51.730;5.356;2022-09-17T05:03:25;11.60;77.80
24618;DHT22;12762;51.730;5.356;2022-09-17T05:05:52;11.60;78.00
24618;DHT22;12762;51.730;5.356;2022-09-17T05:08:19;11.60;78.00
24618;DHT22;12762;51.730;5.356;2022-09-17T05:10:50;11.60;78.00
24618;DHT22;12762;51.730;5.356;2022-09-17T05:13:17;11.50;77.90
24618;DHT22;12762;51.730;5.356;2022-09-17T05:15:44;11.50;78.00
24618;DHT22;12762;51.730;5.356;2022-09-17T05:18:11;11.50;78.00
24618;DHT22;12762;51.730;5.356;2022-09-17T05:20:45;11.50;78.00
24618;DHT22;12762;51.730;5.356;2022-09-17T05:23:11;11.50;78.00
24618;DHT22;12762;51.730;5.356;2022-09-17T05:25:40;11.50;78.00
24618;DHT22;12762;51.730;5.356;2022-09-17T05:28:10;11.50;78.00
24618;DHT22;12762;51.730;5.356;2022-09-17T05:30:36;11.50;78.00
24618;DHT22;12762;51.730;5.356;2022-09-17T05:33:04;11.50;78.00
24618;DHT22;12762;51.730;5.356;2022-09-17T05:35:33;11.50;78.10
24618;DHT22;12762;51.730;5.356;2022-09-17T05:38:03;11.40;78.00
24618;DHT22;12762;51.730;5.356;2022-09-17T05:40:31;11.40;78.00
24618;DHT22;12762;51.730;5.356;2022-09-17T05:43:02;11.40;78.00
24618;DHT22;12762;51.730;5.356;2022-09-17T05:45:31;11.50;78.10
24618;DHT22;12762;51.730;5.356;2022-09-17T05:47:59;11.50;78.20
24618;DHT22;12762;51.730;5.356;2022-09-17T05:50:27;11.50;78.20
24618;DHT22;12762;51.730;5.356;2022-09-17T05:52:54;11.50;78.20
24618;DHT22;12762;51.730;5.356;2022-09-17T05:55:24;11.60;78.20
24618;DHT22;12762;51.730;5.356;2022-09-17T05:57:51;11.70;78.30
24618;DHT22;12762;51.730;5.356;2022-09-17T06:00:19;11.80;78.20
24618;DHT22;12762;51.730;5.356;2022-09-17T06:02:46;11.70;78.00
24618;DHT22;12762;51.730;5.356;2022-09-17T06:05:13;11.80;77.90
24618;DHT22;12762;51.730;5.356;2022-09-17T06:07:45;11.80;77.80
24618;DHT22;12762;51.730;5.356;2022-09-17T06:10:13;11.80;77.70
24618;DHT22;12762;51.730;5.356;2022-09-17T06:12:40;11.80;77.60
24618;DHT22;12762;51.730;5.356;2022-09-17T06:15:09;11.90;77.60
24618;DHT22;12762;51.730;5.356;2022-09-17T06:17:40;11.90;77.50
24618;DHT22;12762;51.730;5.356;2022-09-17T06:20:08;11.90;77.40
24618;DHT22;12762;51.730;5.356;2022-09-17T06:22:38;11.90;77.30
24618;DHT22;12762;51.730;5.356;2022-09-17T06:25:05;12.00;77.10
24618;DHT22;12762;51.730;5.356;2022-09-17T06:27:33;12.00;77.00
24618;DHT22;12762;51.730;5.356;2022-09-17T06:30:01;12.10;77.90
24618;DHT22;12762;51.730;5.356;2022-09-17T06:32:28;12.00;76.70
24618;DHT22;12762;51.730;5.356;2022-09-17T06:34:55;12.10;76.70
24618;DHT22;12762;51.730;5.356;2022-09-17T06:37:32;12.10;76.50
24618;DHT22;12762;51.730;5.356;2022-09-17T06:39:59;12.10;76.40
24618;DHT22;12762;51.730;5.356;2022-09-17T06:42:26;12.10;76.30
24618;DHT22;12762;51.730;5.356;2022-09-17T06:44:54;12.10;76.10
24618;DHT22;12762;51.730;5.356;2022-09-17T06:47:23;12.20;76.20
24618;DHT22;12762;51.730;5.356;2022-09-17T06:49:50;12.10;76.00
24618;DHT22;12762;51.730;5.356;2022-09-17T06:52:17;12.10;76.00
24618;DHT22;12762;51.730;5.356;2022-09-17T06:54:44;12.10;76.00
24618;DHT22;12762;51.730;5.356;2022-09-17T06:57:11;12.20;76.10
24618;DHT22;12762;51.730;5.356;2022-09-17T06:59:37;12.20;76.00
24618;DHT22;12762;51.730;5.356;2022-09-17T07:02:04;12.20;76.00
24618;DHT22;12762;51.730;5.356;2022-09-17T07:04:31;12.30;76.00
24618;DHT22;12762;51.730;5.356;2022-09-17T07:06:58;12.30;75.90
24618;DHT22;12762;51.730;5.356;2022-09-17T07:09:25;12.30;75.90
24618;DHT22;12762;51.730;5.356;2022-09-17T07:11:52;12.30;75.80
24618;DHT22;12762;51.730;5.356;2022-09-17T07:14:18;12.40;75.80
24618;DHT22;12762;51.730;5.356;2022-09-17T07:16:46;12.40;75.70
24618;DHT22;12762;51.730;5.356;2022-09-17T07:19:13;12.50;75.70
24618;DHT22;12762;51.730;5.356;2022-09-17T07:21:40;12.50;75.60
24618;DHT22;12762;51.730;5.356;2022-09-17T07:24:07;12.60;75.70
24618;DHT22;12762;51.730;5.356;2022-09-17T07:26:34;12.80;75.90
24618;DHT22;12762;51.730;5.356;2022-09-17T07:29:01;12.90;75.80
24618;DHT22;12762;51.730;5.356;2022-09-17T07:31:28;13.00;75.60
24618;DHT22;12762;51.730;5.356;2022-09-17T07:33:55;13.00;75.40
24618;DHT22;12762;51.730;5.356;2022-09-17T07:36:21;13.00;75.30
24618;DHT22;12762;51.730;5.356;2022-09-17T07:38:48;13.20;75.80
24618;DHT22;12762;51.730;5.356;2022-09-17T07:41:16;13.90;77.10
24618;DHT22;12762;51.730;5.356;2022-09-17T07:43:43;15.20;77.30
24618;DHT22;12762;51.730;5.356;2022-09-17T07:46:15;16.40;75.50
24618;DHT22;12762;51.730;5.356;2022-09-17T07:48:43;17.30;73.00
24618;DHT22;12762;51.730;5.356;2022-09-17T07:51:16;18.20;71.80
24618;DHT22;12762;51.730;5.356;2022-09-17T07:53:43;18.70;69.70
24618;DHT22;12762;51.730;5.356;2022-09-17T07:56:11;18.50;67.10
24618;DHT22;12762;51.730;5.356;2022-09-17T07:58:38;17.90;66.50
24618;DHT22;12762;51.730;5.356;2022-09-17T08:01:10;17.30;66.80
24618;DHT22;12762;51.730;5.356;2022-09-17T08:03:38;16.80;67.50
24618;DHT22;12762;51.730;5.356;2022-09-17T08:06:10;16.60;69.10
24618;DHT22;12762;51.730;5.356;2022-09-17T08:08:38;17.10;70.00
24618;DHT22;12762;51.730;5.356;2022-09-17T08:11:08;17.90;70.00
24618;DHT22;12762;51.730;5.356;2022-09-17T08:13:35;18.50;68.70
24618;DHT22;12762;51.730;5.356;2022-09-17T08:16:05;19.20;67.70
24618;DHT22;12762;51.730;5.356;2022-09-17T08:18:35;19.60;66.30
24618;DHT22;12762;51.730;5.356;2022-09-17T08:21:04;19.80;65.30
24618;DHT22;12762;51.730;5.356;2022-09-17T08:23:34;19.80;64.60
24618;DHT22;12762;51.730;5.356;2022-09-17T08:26:01;19.80;64.50
24618;DHT22;12762;51.730;5.356;2022-09-17T08:28:30;19.80;64.60
24618;DHT22;12762;51.730;5.356;2022-09-17T08:31:07;19.80;64.00
24618;DHT22;12762;51.730;5.356;2022-09-17T08:33:36;19.70;64.80
24618;DHT22;12762;51.730;5.356;2022-09-17T08:36:05;19.60;64.30
24618;DHT22;12762;51.730;5.356;2022-09-17T08:38:34;19.50;64.50
24618;DHT22;12762;51.730;5.356;2022-09-17T08:46:16;19.10;64.60
24618;DHT22;12762;51.730;5.356;2022-09-17T08:48:59;18.80;64.80
24618;DHT22;12762;51.730;5.356;2022-09-17T09:00:09;17.20;66.50
24618;DHT22;12762;51.730;5.356;2022-09-17T09:08:01;17.00;67.50
24618;DHT22;12762;51.730;5.356;2022-09-17T09:11:00;17.10;67.50
24618;DHT22;12762;51.730;5.356;2022-09-17T09:13:38;17.40;67.70
24618;DHT22;12762;51.730;5.356;2022-09-17T09:16:16;17.80;67.40
24618;DHT22;12762;51.730;5.356;2022-09-17T09:18:44;17.90;66.20
24618;DHT22;12762;51.730;5.356;2022-09-17T09:21:37;17.70;65.60
24618;DHT22;12762;51.730;5.356;2022-09-17T09:26:47;17.20;65.50
24618;DHT22;12762;51.730;5.356;2022-09-17T09:32:57;16.90;66.40
24618;DHT22;12762;51.730;5.356;2022-09-17T09:35:31;17.00;66.80
24618;DHT22;12762;51.730;5.356;2022-09-17T09:41:19;17.40;66.50
24618;DHT22;12762;51.730;5.356;2022-09-17T09:52:29;17.50;66.60
24618;DHT22;12762;51.730;5.356;2022-09-17T09:57:47;18.10;66.50
24618;DHT22;12762;51.730;5.356;2022-09-17T10:00:34;18.40;66.30
24618;DHT22;12762;51.730;5.356;2022-09-17T10:03:26;18.50;65.70
24618;DHT22;12762;51.730;5.356;2022-09-17T10:08:30;18.30;66.10
24618;DHT22;12762;51.730;5.356;2022-09-17T10:11:03;18.00;65.80
24618;DHT22;12762;51.730;5.356;2022-09-17T10:13:32;17.70;66.30
24618;DHT22;12762;51.730;5.356;2022-09-17T10:16:24;17.40;66.70
24618;DHT22;12762;51.730;5.356;2022-09-17T10:21:39;17.30;68.00
24618;DHT22;12762;51.730;5.356;2022-09-17T10:26:49;17.30;68.00
24618;DHT22;12762;51.730;5.356;2022-09-17T10:29:18;17.10;67.90
24618;DHT22;12762;51.730;5.356;2022-09-17T10:34:30;17.20;68.40
24618;DHT22;12762;51.730;5.356;2022-09-17T10:37:01;17.50;68.30
24618;DHT22;12762;51.730;5.356;2022-09-17T10:39:37;17.70;68.20
24618;DHT22;12762;51.730;5.356;2022-09-17T10:42:15;17.90;67.90
24618;DHT22;12762;51.730;5.356;2022-09-17T10:44:56;18.00;67.20
24618;DHT22;12762;51.730;5.356;2022-09-17T10:47:29;18.10;67.00
24618;DHT22;12762;51.730;5.356;2022-09-17T10:52:37;18.50;66.80
24618;DHT22;12762;51.730;5.356;2022-09-17T11:00:27;18.60;66.50
24618;DHT22;12762;51.730;5.356;2022-09-17T11:03:23;18.60;66.70
24618;DHT22;12762;51.730;5.356;2022-09-17T11:06:19;18.60;66.60
24618;DHT22;12762;51.730;5.356;2022-09-17T11:09:08;18.70;66.70
24618;DHT22;12762;51.730;5.356;2022-09-17T11:17:49;19.40;65.80
24618;DHT22;12762;51.730;5.356;2022-09-17T11:25:44;19.60;64.10
24618;DHT22;12762;51.730;5.356;2022-09-17T11:33:56;19.70;64.30
24618;DHT22;12762;51.730;5.356;2022-09-17T11:36:32;19.60;64.10
24618;DHT22;12762;51.730;5.356;2022-09-17T11:39:12;19.70;64.60
24618;DHT22;12762;51.730;5.356;2022-09-17T11:41:42;19.90;64.80
24618;DHT22;12762;51.730;5.356;2022-09-17T11:46:46;20.10;63.40
24618;DHT22;12762;51.730;5.356;2022-09-17T11:52:17;20.10;62.50
24618;DHT22;12762;51.730;5.356;2022-09-17T11:57:19;19.80;61.80
24618;DHT22;12762;51.730;5.356;2022-09-17T12:07:59;19.20;62.50
24618;DHT22;12762;51.730;5.356;2022-09-17T12:10:47;19.00;62.90
24618;DHT22;12762;51.730;5.356;2022-09-17T12:16:02;19.20;63.70
24618;DHT22;12762;51.730;5.356;2022-09-17T12:21:08;19.50;62.60
24618;DHT22;12762;51.730;5.356;2022-09-17T12:23:38;19.60;61.60
24618;DHT22;12762;51.730;5.356;2022-09-17T12:29:28;19.70;60.10
24618;DHT22;12762;51.730;5.356;2022-09-17T12:57:24;20.50;55.20
24618;DHT22;12762;51.730;5.356;2022-09-17T13:00:04;20.60;53.80
24618;DHT22;12762;51.730;5.356;2022-09-17T13:14:45;20.90;54.70
24618;DHT22;12762;51.730;5.356;2022-09-17T13:22:45;21.50;53.90
24618;DHT22;12762;51.730;5.356;2022-09-17T13:25:15;21.50;53.90
24618;DHT22;12762;51.730;5.356;2022-09-17T13:27:44;21.60;54.00
24618;DHT22;12762;51.730;5.356;2022-09-17T13:30:13;21.70;54.10
24618;DHT22;12762;51.730;5.356;2022-09-17T13:32:48;21.70;53.90
24618;DHT22;12762;51.730;5.356;2022-09-17T13:40:25;21.90;54.30
24618;DHT22;12762;51.730;5.356;2022-09-17T13:42:53;21.90;53.90
24618;DHT22;12762;51.730;5.356;2022-09-17T13:45:22;21.80;54.00
24618;DHT22;12762;51.730;5.356;2022-09-17T13:48:02;21.90;53.60
24618;DHT22;12762;51.730;5.356;2022-09-17T13:50:39;21.80;52.90
24618;DHT22;12762;51.730;5.356;2022-09-17T13:53:16;21.60;52.90
24618;DHT22;12762;51.730;5.356;2022-09-17T14:08:47;20.40;53.10
24618;DHT22;12762;51.730;5.356;2022-09-17T14:13:49;20.00;54.40
24618;DHT22;12762;51.730;5.356;2022-09-17T14:35:40;20.00;53.40
24618;DHT22;12762;51.730;5.356;2022-09-17T14:46:17;20.40;52.10
24618;DHT22;12762;51.730;5.356;2022-09-17T14:48:45;20.40;51.80
24618;DHT22;12762;51.730;5.356;2022-09-17T14:51:23;20.40;51.40
24618;DHT22;12762;51.730;5.356;2022-09-17T14:56:33;20.50;51.10
24618;DHT22;12762;51.730;5.356;2022-09-17T14:59:00;20.50;50.50
24618;DHT22;12762;51.730;5.356;2022-09-17T15:01:29;20.50;49.70
24618;DHT22;12762;51.730;5.356;2022-09-17T15:06:42;20.30;49.60
24618;DHT22;12762;51.730;5.356;2022-09-17T15:09:17;20.30;49.70
24618;DHT22;12762;51.730;5.356;2022-09-17T15:11:45;20.30;49.50
24618;DHT22;12762;51.730;5.356;2022-09-17T15:14:21;20.30;49.40
24618;DHT22;12762;51.730;5.356;2022-09-17T15:16:53;20.30;49.20
24618;DHT22;12762;51.730;5.356;2022-09-17T15:19:26;20.20;48.80
24618;DHT22;12762;51.730;5.356;2022-09-17T15:21:59;20.10;48.70
24618;DHT22;12762;51.730;5.356;2022-09-17T15:24:44;20.10;48.80
24618;DHT22;12762;51.730;5.356;2022-09-17T15:27:32;20.10;49.20
24618;DHT22;12762;51.730;5.356;2022-09-17T15:30:08;20.20;49.60
24618;DHT22;12762;51.730;5.356;2022-09-17T15:32:35;20.30;49.70
24618;DHT22;12762;51.730;5.356;2022-09-17T15:37:53;20.20;49.60
24618;DHT22;12762;51.730;5.356;2022-09-17T15:40:40;20.10;50.00
24618;DHT22;12762;51.730;5.356;2022-09-17T15:45:47;19.90;50.10
24618;DHT22;12762;51.730;5.356;2022-09-17T15:48:35;19.70;50.00
24618;DHT22;12762;51.730;5.356;2022-09-17T15:51:05;19.60;50.30
24618;DHT22;12762;51.730;5.356;2022-09-17T15:53:59;19.50;50.50
24618;DHT22;12762;51.730;5.356;2022-09-17T15:56:33;19.50;50.40
24618;DHT22;12762;51.730;5.356;2022-09-17T16:04:06;19.20;50.50
24618;DHT22;12762;51.730;5.356;2022-09-17T16:06:35;19.10;50.00
24618;DHT22;12762;51.730;5.356;2022-09-17T16:09:02;19.00;50.10
24618;DHT22;12762;51.730;5.356;2022-09-17T16:11:30;19.00;50.00
24618;DHT22;12762;51.730;5.356;2022-09-17T16:13:59;18.90;49.80
24618;DHT22;12762;51.730;5.356;2022-09-17T16:16:34;18.90;49.40
24618;DHT22;12762;51.730;5.356;2022-09-17T16:19:03;18.80;49.60
24618;DHT22;12762;51.730;5.356;2022-09-17T16:21:31;18.80;50.00
24618;DHT22;12762;51.730;5.356;2022-09-17T16:23:58;18.70;49.80
24618;DHT22;12762;51.730;5.356;2022-09-17T16:26:28;18.60;49.80
24618;DHT22;12762;51.730;5.356;2022-09-17T16:29:03;18.50;49.50
24618;DHT22;12762;51.730;5.356;2022-09-17T16:31:31;18.30;49.90
24618;DHT22;12762;51.730;5.356;2022-09-17T16:33:58;18.20;50.10
24618;DHT22;12762;51.730;5.356;2022-09-17T16:36:26;18.00;49.90
24618;DHT22;12762;51.730;5.356;2022-09-17T16:38:57;17.80;49.70
24618;DHT22;12762;51.730;5.356;2022-09-17T16:41:24;17.70;50.00
24618;DHT22;12762;51.730;5.356;2022-09-17T16:43:50;17.60;50.20
24618;DHT22;12762;51.730;5.356;2022-09-17T16:46:17;17.50;50.50
24618;DHT22;12762;51.730;5.356;2022-09-17T16:48:48;17.40;50.60
24618;DHT22;12762;51.730;5.356;2022-09-17T16:51:15;17.40;50.80
24618;DHT22;12762;51.730;5.356;2022-09-17T16:53:42;17.30;51.00
24618;DHT22;12762;51.730;5.356;2022-09-17T16:56:11;17.30;51.30
24618;DHT22;12762;51.730;5.356;2022-09-17T16:58:38;17.20;51.40
24618;DHT22;12762;51.730;5.356;2022-09-17T17:01:14;17.10;51.80
24618;DHT22;12762;51.730;5.356;2022-09-17T17:03:41;17.00;52.30
24618;DHT22;12762;51.730;5.356;2022-09-17T17:06:15;16.90;52.80
24618;DHT22;12762;51.730;5.356;2022-09-17T17:08:42;16.80;53.40
24618;DHT22;12762;51.730;5.356;2022-09-17T17:11:09;16.80;53.60
24618;DHT22;12762;51.730;5.356;2022-09-17T17:13:36;16.70;53.70
24618;DHT22;12762;51.730;5.356;2022-09-17T17:16:07;16.70;53.80
24618;DHT22;12762;51.730;5.356;2022-09-17T17:18:34;16.60;53.70
24618;DHT22;12762;51.730;5.356;2022-09-17T17:21:08;16.50;53.80
24618;DHT22;12762;51.730;5.356;2022-09-17T17:23:35;16.50;54.00
24618;DHT22;12762;51.730;5.356;2022-09-17T17:26:02;16.40;54.00
24618;DHT22;12762;51.730;5.356;2022-09-17T17:28:35;16.30;54.90
24618;DHT22;12762;51.730;5.356;2022-09-17T17:31:03;16.30;54.50
24618;DHT22;12762;51.730;5.356;2022-09-17T17:33:34;16.20;54.70
24618;DHT22;12762;51.730;5.356;2022-09-17T17:36:02;16.10;55.00
24618;DHT22;12762;51.730;5.356;2022-09-17T17:38:34;16.10;55.40
24618;DHT22;12762;51.730;5.356;2022-09-17T17:41:10;16.00;55.90
24618;DHT22;12762;51.730;5.356;2022-09-17T17:43:40;15.90;56.30
24618;DHT22;12762;51.730;5.356;2022-09-17T17:46:08;15.80;56.80
24618;DHT22;12762;51.730;5.356;2022-09-17T17:48:36;15.70;57.30
24618;DHT22;12762;51.730;5.356;2022-09-17T17:51:05;15.70;58.50
24618;DHT22;12762;51.730;5.356;2022-09-17T17:53:33;15.60;58.10
24618;DHT22;12762;51.730;5.356;2022-09-17T17:56:02;15.50;58.40
24618;DHT22;12762;51.730;5.356;2022-09-17T17:58:29;15.50;58.90
24618;DHT22;12762;51.730;5.356;2022-09-17T18:00:56;15.40;59.20
24618;DHT22;12762;51.730;5.356;2022-09-17T18:03:24;15.40;59.50
24618;DHT22;12762;51.730;5.356;2022-09-17T18:05:52;15.30;59.60
24618;DHT22;12762;51.730;5.356;2022-09-17T18:08:23;15.20;59.80
24618;DHT22;12762;51.730;5.356;2022-09-17T18:10:57;15.20;60.10
24618;DHT22;12762;51.730;5.356;2022-09-17T18:13:26;15.10;60.30
24618;DHT22;12762;51.730;5.356;2022-09-17T18:15:54;15.10;60.40
24618;DHT22;12762;51.730;5.356;2022-09-17T18:18:22;15.00;60.80
24618;DHT22;12762;51.730;5.356;2022-09-17T18:20:50;15.00;61.10
24618;DHT22;12762;51.730;5.356;2022-09-17T18:23:22;14.90;61.20
24618;DHT22;12762;51.730;5.356;2022-09-17T18:25:57;14.90;61.40
24618;DHT22;12762;51.730;5.356;2022-09-17T18:28:25;14.80;61.70
24618;DHT22;12762;51.730;5.356;2022-09-17T18:30:53;14.70;61.80
24618;DHT22;12762;51.730;5.356;2022-09-17T18:33:25;14.60;62.10
24618;DHT22;12762;51.730;5.356;2022-09-17T18:35:52;14.60;62.40
24618;DHT22;12762;51.730;5.356;2022-09-17T18:38:23;14.50;62.60
24618;DHT22;12762;51.730;5.356;2022-09-17T18:40:50;14.40;62.80
24618;DHT22;12762;51.730;5.356;2022-09-17T18:43:17;14.40;63.10
24618;DHT22;12762;51.730;5.356;2022-09-17T18:45:54;14.30;63.40
24618;DHT22;12762;51.730;5.356;2022-09-17T18:48:22;14.20;64.40
24618;DHT22;12762;51.730;5.356;2022-09-17T18:51:03;14.20;63.80
24618;DHT22;12762;51.730;5.356;2022-09-17T18:53:33;14.10;64.00
24618;DHT22;12762;51.730;5.356;2022-09-17T18:56:14;14.10;64.30
24618;DHT22;12762;51.730;5.356;2022-09-17T18:58:46;14.00;64.50
24618;DHT22;12762;51.730;5.356;2022-09-17T19:01:13;14.00;64.70
24618;DHT22;12762;51.730;5.356;2022-09-17T19:03:43;13.90;64.70
24618;DHT22;12762;51.730;5.356;2022-09-17T19:06:11;13.90;64.90
24618;DHT22;12762;51.730;5.356;2022-09-17T19:08:41;13.90;65.10
24618;DHT22;12762;51.730;5.356;2022-09-17T19:11:08;13.90;65.30
24618;DHT22;12762;51.730;5.356;2022-09-17T19:13:41;13.90;65.40
24618;DHT22;12762;51.730;5.356;2022-09-17T19:16:10;13.80;65.50
24618;DHT22;12762;51.730;5.356;2022-09-17T19:18:40;13.90;65.70
24618;DHT22;12762;51.730;5.356;2022-09-17T19:21:11;13.90;65.80
24618;DHT22;12762;51.730;5.356;2022-09-17T19:23:43;13.90;65.80
24618;DHT22;12762;51.730;5.356;2022-09-17T19:26:18;13.90;66.00
24618;DHT22;12762;51.730;5.356;2022-09-17T19:28:46;13.80;65.90
24618;DHT22;12762;51.730;5.356;2022-09-17T19:31:15;13.80;66.00
24618;DHT22;12762;51.730;5.356;2022-09-17T19:33:43;13.80;66.10
24618;DHT22;12762;51.730;5.356;2022-09-17T19:36:12;13.80;66.20
24618;DHT22;12762;51.730;5.356;2022-09-17T19:38:40;13.80;66.50
24618;DHT22;12762;51.730;5.356;2022-09-17T19:41:10;13.70;66.50
24618;DHT22;12762;51.730;5.356;2022-09-17T19:43:38;13.70;66.80
24618;DHT22;12762;51.730;5.356;2022-09-17T19:46:07;13.70;66.90
24618;DHT22;12762;51.730;5.356;2022-09-17T19:48:34;13.60;67.10
24618;DHT22;12762;51.730;5.356;2022-09-17T19:51:04;13.60;67.30
24618;DHT22;12762;51.730;5.356;2022-09-17T19:53:32;13.60;67.40